Time;durP1;ratioP1;P1;durP2;ratioP2;P2;SDS_P1;SDS_P2;PMS_P1;PMS_P2;Temp;Humidity;BMP_temperature;BMP_pressure;BME280_temperature;BME280_humidity;BME280_pressure;Samples;Min_cycle;Max_cycle;Signal;HPM_P1;HPM_P2
2021/04/25 00:00:58;;;;;;;3.17;2.00;;;8.50;94.00;;;;;;5054570;28;20439;-74
2021/04/25 00:03:25;;;;;;;4.33;1.77;;;8.50;94.30;;;;;;5049190;28;20211;-73
2021/04/25 00:05:51;;;;;;;1.87;1.70;;;8.50;94.30;;;;;;5048462;28;20623;-72
2021/04/25 00:08:18;;;;;;;2.47;1.53;;;8.50;94.30;;;;;;5048894;28;20208;-73
2021/04/25 00:10:44;;;;;;;2.07;1.83;;;8.50;94.30;;;;;;5048889;28;20209;-75
2021/04/25 00:13:11;;;;;;;3.50;1.83;;;8.40;94.10;;;;;;5048992;28;20215;-75
2021/04/25 00:15:37;;;;;;;2.17;1.80;;;8.40;93.90;;;;;;5049145;28;20274;-75
2021/04/25 00:18:04;;;;;;;4.60;1.57;;;8.40;93.90;;;;;;5049138;28;20204;-75
2021/04/25 00:20:30;;;;;;;2.30;1.73;;;8.40;94.40;;;;;;5049476;28;20215;-75
2021/04/25 00:22:56;;;;;;;3.23;1.97;;;8.40;94.90;;;;;;5048313;28;20275;-75
2021/04/25 00:25:23;;;;;;;3.93;1.60;;;8.40;95.00;;;;;;5049291;28;20219;-75
2021/04/25 00:27:50;;;;;;;3.80;1.77;;;8.40;94.90;;;;;;5049306;28;20205;-76
2021/04/25 00:30:19;;;;;;;2.03;1.83;;;8.40;94.70;;;;;;5049288;28;20258;-75
2021/04/25 00:32:46;;;;;;;2.70;2.13;;;8.40;94.50;;;;;;5048993;28;20208;-76
2021/04/25 00:35:13;;;;;;;1.97;1.77;;;8.40;94.30;;;;;;5049002;28;20242;-75
2021/04/25 00:37:39;;;;;;;2.90;1.83;;;8.40;94.40;;;;;;5049107;28;20208;-76
2021/04/25 00:40:08;;;;;;;1.67;1.37;;;8.30;94.50;;;;;;5048991;28;20265;-73
2021/04/25 00:42:35;;;;;;;2.10;1.60;;;8.30;94.50;;;;;;5048539;28;20204;-76
2021/04/25 00:45:04;;;;;;;2.03;1.90;;;8.40;94.60;;;;;;5048808;28;20212;-76
2021/04/25 00:47:30;;;;;;;2.20;2.00;;;8.30;94.50;;;;;;5048837;28;20231;-76
2021/04/25 00:49:57;;;;;;;2.87;1.90;;;8.30;94.50;;;;;;5048950;28;20208;-76
2021/04/25 00:52:23;;;;;;;1.73;1.63;;;8.30;94.60;;;;;;5048922;28;20282;-76
2021/04/25 00:54:50;;;;;;;3.10;1.97;;;8.30;94.90;;;;;;5049002;28;20285;-76
2021/04/25 00:57:17;;;;;;;2.67;1.80;;;8.30;95.10;;;;;;5048814;28;20216;-76
2021/04/25 00:59:44;;;;;;;2.00;1.90;;;8.30;95.40;;;;;;5048271;28;20200;-75
2021/04/25 01:02:11;;;;;;;2.13;1.87;;;8.30;95.80;;;;;;5048706;28;20211;-76
2021/04/25 01:04:38;;;;;;;1.90;1.80;;;8.30;95.80;;;;;;5048593;28;20215;-76
2021/04/25 01:07:04;;;;;;;1.97;1.87;;;8.40;96.20;;;;;;5048226;28;20231;-76
2021/04/25 01:09:31;;;;;;;2.30;1.90;;;8.40;96.70;;;;;;5048606;28;20240;-76
2021/04/25 01:11:58;;;;;;;2.20;1.87;;;8.40;96.80;;;;;;5048308;28;20211;-76
2021/04/25 01:14:24;;;;;;;2.30;2.10;;;8.40;96.60;;;;;;5056309;28;20203;-76
2021/04/25 01:16:51;;;;;;;2.53;1.77;;;8.30;96.80;;;;;;5068137;28;20602;-76
2021/04/25 01:19:17;;;;;;;2.40;1.77;;;8.30;96.90;;;;;;5068512;28;20214;-76
2021/04/25 01:21:44;;;;;;;2.53;2.10;;;8.30;96.90;;;;;;5068509;28;20231;-76
2021/04/25 01:24:11;;;;;;;1.87;1.77;;;8.40;96.70;;;;;;5068054;28;20677;-75
2021/04/25 01:26:37;;;;;;;2.03;1.93;;;8.30;96.70;;;;;;5068197;28;20779;-76
2021/04/25 01:29:03;;;;;;;2.60;1.70;;;8.20;96.70;;;;;;5068418;28;20219;-76
2021/04/25 01:31:29;;;;;;;3.47;1.80;;;8.20;96.80;;;;;;5068347;28;20199;-76
2021/04/25 01:33:56;;;;;;;7.67;1.83;;;8.20;96.40;;;;;;5068160;28;20203;-76
2021/04/25 01:36:22;;;;;;;2.00;1.80;;;8.20;96.40;;;;;;5068207;28;20678;-76
2021/04/25 01:38:49;;;;;;;3.17;1.83;;;8.20;96.50;;;;;;5052324;28;20326;-76
2021/04/25 01:41:15;;;;;;;2.50;1.70;;;8.10;95.70;;;;;;5047947;28;20214;-76
2021/04/25 01:43:41;;;;;;;1.90;1.80;;;8.00;95.40;;;;;;5048203;28;20244;-76
2021/04/25 01:46:07;;;;;;;2.03;1.87;;;7.90;95.00;;;;;;5048010;28;20252;-76
2021/04/25 01:48:33;;;;;;;2.23;1.40;;;7.70;94.80;;;;;;5048497;28;20208;-76
2021/04/25 01:50:59;;;;;;;1.50;1.40;;;7.80;95.00;;;;;;5048042;28;20644;-76
2021/04/25 01:53:26;;;;;;;4.93;2.00;;;7.80;94.80;;;;;;5048121;28;20714;-76
2021/04/25 01:55:53;;;;;;;1.90;1.70;;;7.80;94.90;;;;;;5047773;28;20752;-76
2021/04/25 01:58:19;;;;;;;1.83;1.57;;;7.80;95.00;;;;;;5048061;28;20710;-76
2021/04/25 02:00:46;;;;;;;2.93;1.80;;;7.80;94.90;;;;;;5048175;28;20207;-76
2021/04/25 02:03:15;;;;;;;1.43;1.20;;;7.90;95.00;;;;;;5048010;28;20212;-76
2021/04/25 02:05:42;;;;;;;2.70;1.90;;;7.80;95.10;;;;;;5048077;28;20204;-76
2021/04/25 02:08:10;;;;;;;3.00;1.63;;;7.90;95.30;;;;;;5048092;28;20649;-77
2021/04/25 02:10:36;;;;;;;1.77;1.67;;;7.80;95.40;;;;;;5048210;28;20269;-77
2021/04/25 02:13:04;;;;;;;1.70;1.60;;;7.80;95.50;;;;;;5047992;28;20208;-76
2021/04/25 02:15:30;;;;;;;1.80;1.70;;;7.80;95.40;;;;;;5047474;28;20718;-77
2021/04/25 02:17:56;;;;;;;2.07;1.70;;;7.90;95.40;;;;;;5049284;28;20195;-74
2021/04/25 02:20:24;;;;;;;1.50;1.40;;;7.90;95.40;;;;;;5051610;28;20231;-74
2021/04/25 02:22:51;;;;;;;1.87;1.60;;;7.80;95.50;;;;;;5051539;28;20208;-74
2021/04/25 02:25:18;;;;;;;1.60;1.50;;;7.80;95.80;;;;;;5051413;28;20203;-74
2021/04/25 02:27:45;;;;;;;1.83;1.57;;;7.80;96.00;;;;;;5051243;28;20228;-74
2021/04/25 02:30:14;;;;;;;2.80;1.70;;;7.70;96.10;;;;;;5051330;28;20211;-74
2021/04/25 02:32:41;;;;;;;2.10;1.77;;;7.70;96.30;;;;;;5051256;28;20212;-74
2021/04/25 02:35:10;;;;;;;1.63;1.30;;;7.70;96.40;;;;;;5051123;28;20204;-74
2021/04/25 02:37:36;;;;;;;1.87;1.50;;;7.70;96.40;;;;;;5051000;28;20683;-74
2021/04/25 02:40:04;;;;;;;2.10;1.90;;;7.70;96.30;;;;;;5050691;28;20215;-74
2021/04/25 02:42:30;;;;;;;2.80;1.97;;;7.60;96.30;;;;;;5051097;28;20581;-74
2021/04/25 02:44:56;;;;;;;2.50;1.87;;;7.60;96.40;;;;;;5051110;28;20231;-74
2021/04/25 02:47:23;;;;;;;2.57;1.97;;;7.60;96.30;;;;;;5050928;28;20228;-74
2021/04/25 02:49:49;;;;;;;1.70;1.60;;;7.70;96.30;;;;;;5051056;28;20200;-74
2021/04/25 02:52:15;;;;;;;2.27;1.90;;;7.70;96.50;;;;;;5050645;28;20228;-74
2021/04/25 02:54:41;;;;;;;1.50;1.40;;;7.70;96.50;;;;;;5050838;28;20685;-74
2021/04/25 02:57:08;;;;;;;4.87;2.00;;;7.50;96.80;;;;;;5050559;28;20211;-73
2021/04/25 02:59:34;;;;;;;2.43;2.00;;;7.50;97.10;;;;;;5051036;28;20245;-73
2021/04/25 03:02:00;;;;;;;4.60;1.73;;;7.50;97.20;;;;;;5050704;28;20208;-73
2021/04/25 03:04:27;;;;;;;1.60;1.50;;;7.50;97.30;;;;;;5050935;28;20463;-75
2021/04/25 03:06:53;;;;;;;2.13;1.90;;;7.50;97.50;;;;;;5050443;28;20234;-76
2021/04/25 03:09:19;;;;;;;2.03;1.77;;;7.50;97.60;;;;;;5050518;28;20243;-76
2021/04/25 03:11:45;;;;;;;2.70;1.70;;;7.40;97.20;;;;;;5050498;28;20238;-76
2021/04/25 03:14:12;;;;;;;2.67;2.13;;;7.30;97.30;;;;;;5050804;28;20560;-77
2021/04/25 03:16:38;;;;;;;2.53;1.70;;;7.30;97.30;;;;;;5050412;28;20240;-77
2021/04/25 03:19:04;;;;;;;2.03;1.87;;;7.20;97.50;;;;;;5050499;28;20215;-76
2021/04/25 03:21:31;;;;;;;2.67;2.07;;;7.10;97.70;;;;;;5050452;28;20208;-77
2021/04/25 03:23:57;;;;;;;3.17;1.80;;;7.10;97.80;;;;;;5050340;28;20208;-77
2021/04/25 03:26:24;;;;;;;2.43;1.90;;;7.10;98.00;;;;;;5050277;28;20695;-77
2021/04/25 03:28:50;;;;;;;1.83;1.70;;;7.10;98.10;;;;;;5050051;28;20212;-77
2021/04/25 03:31:16;;;;;;;1.83;1.73;;;7.20;98.20;;;;;;5050120;28;20674;-77
2021/04/25 03:33:42;;;;;;;3.23;1.70;;;7.30;98.20;;;;;;5050938;28;20211;-77
2021/04/25 03:36:09;;;;;;;1.93;1.77;;;7.30;98.30;;;;;;5050203;28;20753;-77
2021/04/25 03:38:35;;;;;;;6.63;1.97;;;7.20;98.30;;;;;;5050323;28;20246;-77
2021/04/25 03:41:02;;;;;;;2.20;2.00;;;7.30;98.20;;;;;;5050053;28;20208;-79
2021/04/25 03:43:28;;;;;;;2.07;1.80;;;7.20;98.30;;;;;;5050273;28;20208;-79
2021/04/25 03:45:55;;;;;;;3.43;1.93;;;7.20;98.40;;;;;;5050217;28;20220;-79
2021/04/25 03:48:21;;;;;;;2.17;1.97;;;7.20;98.40;;;;;;5049858;28;20273;-79
2021/04/25 03:50:47;;;;;;;1.60;1.50;;;7.00;97.80;;;;;;5050051;28;20208;-78
2021/04/25 03:53:13;;;;;;;2.37;2.00;;;7.00;98.00;;;;;;5050277;28;20232;-78
2021/04/25 03:55:40;;;;;;;2.73;1.70;;;6.90;98.10;;;;;;5049908;28;20204;-78
2021/04/25 03:58:07;;;;;;;3.97;2.27;;;7.00;98.20;;;;;;5049558;28;20227;-78
2021/04/25 04:00:33;;;;;;;3.40;2.07;;;7.10;98.40;;;;;;5049990;28;20216;-78
2021/04/25 04:02:59;;;;;;;3.33;2.13;;;7.20;98.50;;;;;;5049855;28;20236;-78
2021/04/25 04:05:25;;;;;;;2.67;2.47;;;7.30;98.60;;;;;;5049832;28;20208;-78
2021/04/25 04:07:51;;;;;;;2.97;2.50;;;7.30;98.60;;;;;;5049699;28;20293;-78
2021/04/25 04:10:18;;;;;;;4.40;2.40;;;7.30;98.60;;;;;;5049573;28;20244;-78
2021/04/25 04:12:45;;;;;;;4.73;2.43;;;7.40;98.60;;;;;;5049703;28;20204;-75
2021/04/25 04:15:12;;;;;;;2.53;2.07;;;7.40;98.50;;;;;;5049127;28;20217;-75
2021/04/25 04:17:38;;;;;;;3.40;2.90;;;7.40;98.40;;;;;;5049593;28;20219;-78
2021/04/25 04:20:06;;;;;;;4.90;2.60;;;7.40;98.60;;;;;;5049323;28;20223;-78
2021/04/25 04:22:32;;;;;;;3.37;2.60;;;7.40;98.60;;;;;;5049082;28;20204;-78
2021/04/25 04:24:59;;;;;;;3.20;2.87;;;7.40;98.60;;;;;;5049320;28;20212;-77
2021/04/25 04:27:25;;;;;;;2.73;2.50;;;7.40;98.70;;;;;;5048197;28;20235;-78
2021/04/25 04:29:52;;;;;;;5.53;2.80;;;7.40;98.70;;;;;;5048088;28;20258;-74
2021/04/25 04:32:18;;;;;;;2.90;2.20;;;7.40;98.70;;;;;;5048748;28;20209;-74
2021/04/25 04:34:44;;;;;;;2.53;2.33;;;7.40;98.60;;;;;;5049134;28;20212;-74
2021/04/25 04:37:10;;;;;;;2.77;2.57;;;7.50;98.60;;;;;;5048691;28;20778;-74
2021/04/25 04:39:36;;;;;;;2.60;2.40;;;7.50;98.60;;;;;;5048971;28;20212;-73
2021/04/25 04:42:03;;;;;;;2.47;2.27;;;7.50;98.20;;;;;;5048153;28;20207;-74
2021/04/25 04:44:29;;;;;;;2.87;2.30;;;7.50;98.10;;;;;;5048984;28;20293;-74
2021/04/25 04:46:56;;;;;;;2.80;2.30;;;7.60;98.00;;;;;;5048742;28;20236;-74
2021/04/25 04:49:22;;;;;;;3.70;2.30;;;7.50;97.90;;;;;;5048736;28;20239;-74
2021/04/25 04:51:48;;;;;;;3.03;2.57;;;7.50;98.00;;;;;;5048868;28;20273;-75
2021/04/25 04:54:14;;;;;;;3.17;2.87;;;7.50;98.10;;;;;;5048593;28;20216;-75
2021/04/25 04:56:40;;;;;;;5.17;2.13;;;7.50;97.80;;;;;;5048800;28;20215;-75
2021/04/25 04:59:06;;;;;;;3.37;2.20;;;7.40;97.70;;;;;;5048795;28;20592;-74
2021/04/25 05:01:32;;;;;;;2.37;2.17;;;7.50;97.60;;;;;;5048701;28;20203;-74
2021/04/25 05:03:59;;;;;;;3.27;2.37;;;7.40;97.50;;;;;;5048723;28;20613;-75
2021/04/25 05:06:25;;;;;;;3.77;2.70;;;7.50;97.50;;;;;;5048456;28;20329;-75
2021/04/25 05:08:51;;;;;;;5.07;2.50;;;7.50;97.60;;;;;;5048351;28;20277;-75
2021/04/25 05:11:18;;;;;;;2.33;2.13;;;7.60;97.70;;;;;;5048420;28;20204;-76
2021/04/25 05:13:44;;;;;;;2.80;2.20;;;7.60;97.60;;;;;;5048599;28;20212;-76
2021/04/25 05:16:10;;;;;;;4.73;2.67;;;7.50;97.40;;;;;;5048233;28;20243;-77
2021/04/25 05:18:38;;;;;;;4.50;2.70;;;7.40;97.80;;;;;;5048520;28;20236;-77
2021/04/25 05:21:05;;;;;;;2.87;2.17;;;7.40;97.70;;;;;;5048069;28;20572;-77
2021/04/25 05:23:32;;;;;;;3.37;2.00;;;7.40;97.60;;;;;;5048494;28;20257;-77
2021/04/25 05:25:58;;;;;;;3.00;2.23;;;7.50;97.50;;;;;;5048450;28;20212;-77
2021/04/25 05:28:24;;;;;;;3.10;2.17;;;7.60;97.10;;;;;;5048055;28;20643;-77
2021/04/25 05:30:50;;;;;;;3.00;2.40;;;7.60;97.00;;;;;;5048270;28;20208;-77
2021/04/25 05:33:16;;;;;;;3.50;2.40;;;7.60;96.90;;;;;;5048141;28;20667;-76
2021/04/25 05:35:43;;;;;;;2.97;1.97;;;7.60;96.50;;;;;;5048077;28;20254;-77
2021/04/25 05:38:10;;;;;;;2.50;2.20;;;7.60;96.30;;;;;;5048181;28;20204;-76
2021/04/25 05:40:36;;;;;;;5.27;2.20;;;7.60;96.30;;;;;;5048202;28;20219;-77
2021/04/25 05:43:02;;;;;;;2.63;2.43;;;7.70;96.30;;;;;;5048289;28;20262;-77
2021/04/25 05:45:28;;;;;;;3.70;2.07;;;7.80;96.30;;;;;;5048147;28;20214;-76
2021/04/25 05:47:57;;;;;;;2.60;2.30;;;7.80;96.40;;;;;;5048281;28;20659;-77
2021/04/25 05:50:26;;;;;;;2.60;1.97;;;7.90;96.40;;;;;;5048127;28;20212;-75
2021/04/25 05:52:52;;;;;;;1.80;1.70;;;7.90;96.30;;;;;;5051105;28;20262;-76
2021/04/25 05:55:19;;;;;;;1.97;1.87;;;7.90;96.10;;;;;;5052015;28;20204;-76
2021/04/25 05:57:46;;;;;;;2.10;2.00;;;8.00;96.00;;;;;;5051835;28;20572;-76
2021/04/25 06:00:15;;;;;;;4.10;1.77;;;7.90;95.80;;;;;;5051921;28;20207;-76
2021/04/25 06:02:41;;;;;;;3.13;2.10;;;8.00;95.90;;;;;;5051799;28;20637;-76
2021/04/25 06:05:08;;;;;;;4.20;1.90;;;8.00;95.90;;;;;;5051699;28;20812;-76
2021/04/25 06:07:34;;;;;;;2.70;2.00;;;8.00;95.50;;;;;;5051774;28;20311;-76
2021/04/25 06:10:01;;;;;;;2.07;1.93;;;8.10;95.20;;;;;;5052138;28;20204;-76
2021/04/25 06:12:27;;;;;;;2.00;1.57;;;8.10;95.10;;;;;;5051322;28;20227;-74
2021/04/25 06:14:54;;;;;;;2.50;2.03;;;8.10;95.10;;;;;;5051540;28;20204;-75
2021/04/25 06:17:20;;;;;;;2.00;1.90;;;8.20;94.90;;;;;;5051085;28;20231;-74
2021/04/25 06:19:46;;;;;;;3.80;2.00;;;8.20;94.90;;;;;;5051493;28;20727;-74
2021/04/25 06:22:14;;;;;;;2.50;1.70;;;8.30;95.30;;;;;;5051566;28;20204;-74
2021/04/25 06:24:40;;;;;;;1.97;1.80;;;8.30;94.50;;;;;;5051228;28;20208;-74
2021/04/25 06:27:06;;;;;;;1.63;1.53;;;8.30;94.50;;;;;;5051239;28;20227;-76
2021/04/25 06:29:33;;;;;;;2.07;1.60;;;8.30;94.20;;;;;;5051547;28;20204;-77
2021/04/25 06:31:59;;;;;;;2.30;1.77;;;8.30;94.40;;;;;;5051591;28;20212;-76
2021/04/25 06:34:25;;;;;;;3.13;1.67;;;8.30;94.20;;;;;;5051382;28;20223;-76
2021/04/25 06:36:51;;;;;;;2.37;1.40;;;8.30;94.40;;;;;;5051648;28;20247;-76
2021/04/25 06:39:18;;;;;;;1.93;1.60;;;8.40;94.50;;;;;;5050929;28;20244;-76
2021/04/25 06:41:46;;;;;;;3.23;1.70;;;8.50;94.30;;;;;;5051533;28;20216;-77
2021/04/25 06:44:12;;;;;;;3.07;1.83;;;8.50;94.20;;;;;;5050820;28;20627;-75
2021/04/25 06:46:39;;;;;;;2.93;1.50;;;8.50;94.00;;;;;;5051258;28;20227;-75
2021/04/25 06:49:06;;;;;;;1.60;1.50;;;8.60;94.20;;;;;;5051138;28;20208;-75
2021/04/25 06:51:32;;;;;;;1.67;1.50;;;8.60;94.00;;;;;;5051012;28;20212;-75
2021/04/25 06:53:58;;;;;;;1.17;1.13;;;8.60;93.60;;;;;;5051099;28;20208;-75
2021/04/25 06:56:24;;;;;;;2.53;1.50;;;8.60;93.60;;;;;;5051021;28;20386;-75
2021/04/25 06:58:50;;;;;;;3.37;1.40;;;8.60;93.50;;;;;;5050831;28;20701;-76
2021/04/25 07:01:16;;;;;;;1.70;1.43;;;8.60;93.30;;;;;;5051026;28;20207;-76
2021/04/25 07:03:43;;;;;;;2.20;1.63;;;8.70;93.30;;;;;;5050078;28;20204;-75
2021/04/25 07:06:10;;;;;;;1.80;1.60;;;8.70;93.20;;;;;;5050637;28;20204;-75
2021/04/25 07:08:36;;;;;;;2.00;1.40;;;8.80;93.40;;;;;;5050898;28;20219;-75
2021/04/25 07:11:02;;;;;;;2.03;1.50;;;8.90;93.40;;;;;;5050796;28;20212;-75
2021/04/25 07:13:28;;;;;;;4.20;1.30;;;8.90;93.60;;;;;;5050688;28;20208;-75
2021/04/25 07:15:54;;;;;;;4.80;1.80;;;8.90;93.40;;;;;;5050423;28;20729;-75
2021/04/25 07:18:21;;;;;;;1.80;1.70;;;9.00;93.30;;;;;;5050701;28;20208;-75
2021/04/25 07:20:48;;;;;;;2.23;1.47;;;9.10;93.20;;;;;;5050661;28;20208;-76
2021/04/25 07:23:14;;;;;;;1.83;1.73;;;9.10;93.10;;;;;;5050376;28;20212;-74
2021/04/25 07:25:41;;;;;;;2.20;1.70;;;9.00;92.70;;;;;;5050697;28;20257;-75
2021/04/25 07:28:07;;;;;;;2.57;1.50;;;8.90;92.90;;;;;;5050389;28;20240;-76
2021/04/25 07:30:34;;;;;;;1.70;1.60;;;9.00;92.80;;;;;;5058807;28;20263;-76
2021/04/25 07:33:00;;;;;;;1.50;1.40;;;9.00;93.00;;;;;;5058566;28;20238;-76
2021/04/25 07:35:26;;;;;;;4.50;1.60;;;9.10;92.90;;;;;;5060626;28;20207;-75
2021/04/25 07:37:53;;;;;;;2.90;1.80;;;9.20;92.90;;;;;;5058374;28;20199;-75
2021/04/25 07:40:19;;;;;;;1.50;1.40;;;9.20;92.10;;;;;;5059928;28;20236;-76
2021/04/25 07:42:46;;;;;;;3.23;1.60;;;9.20;92.20;;;;;;5063075;28;20230;-77
2021/04/25 07:45:14;;;;;;;2.20;2.00;;;9.20;91.90;;;;;;5050072;28;20207;-77
2021/04/25 07:47:41;;;;;;;3.00;1.63;;;9.20;92.00;;;;;;5053967;28;20630;-76
2021/04/25 07:50:09;;;;;;;2.23;1.40;;;9.30;92.40;;;;;;5049957;28;20208;-76
2021/04/25 07:52:36;;;;;;;28.07;3.60;;;9.30;92.30;;;;;;5047649;28;20266;-76
2021/04/25 07:55:05;;;;;;;3.37;2.10;;;9.40;92.50;;;;;;5047560;28;20231;-76
2021/04/25 07:57:31;;;;;;;3.13;1.33;;;9.40;92.50;;;;;;5062499;28;20249;-76
2021/04/25 07:59:57;;;;;;;1.87;1.50;;;9.50;92.50;;;;;;5055207;28;20207;-75
2021/04/25 08:02:26;;;;;;;2.27;1.33;;;9.60;92.40;;;;;;5056563;28;20203;-75
2021/04/25 08:04:53;;;;;;;2.50;1.53;;;9.60;92.60;;;;;;5056408;28;20208;-77
2021/04/25 08:07:25;;;;;;;1.50;1.40;;;9.60;92.60;;;;;;5054718;28;20231;-78
2021/04/25 08:09:51;;;;;;;2.60;1.60;;;9.70;91.90;;;;;;5056219;28;20200;-77
2021/04/25 08:12:18;;;;;;;1.73;1.63;;;9.80;91.80;;;;;;5058006;28;20211;-76
2021/04/25 08:14:45;;;;;;;2.43;1.60;;;9.80;91.50;;;;;;5046672;28;20196;-74
2021/04/25 08:17:11;;;;;;;1.77;1.67;;;9.80;91.80;;;;;;5046440;28;20274;-74
2021/04/25 08:19:37;;;;;;;1.60;1.50;;;9.70;91.80;;;;;;5061963;28;20219;-78
2021/04/25 08:22:03;;;;;;;2.37;1.77;;;9.60;91.90;;;;;;5068119;28;20215;-78
2021/04/25 08:24:29;;;;;;;3.23;2.00;;;9.60;92.00;;;;;;5067244;28;20285;-79
2021/04/25 08:26:55;;;;;;;4.23;2.00;;;9.70;92.10;;;;;;5066857;28;20720;-78
2021/04/25 08:29:22;;;;;;;2.40;1.80;;;9.80;92.10;;;;;;5066822;28;20324;-78
2021/04/25 08:31:48;;;;;;;2.20;1.70;;;9.90;91.80;;;;;;5067290;28;20253;-78
2021/04/25 08:34:14;;;;;;;1.80;1.60;;;9.90;91.50;;;;;;5067075;28;20272;-78
2021/04/25 08:36:41;;;;;;;2.93;1.57;;;10.10;91.60;;;;;;5066879;28;20211;-77
2021/04/25 08:39:07;;;;;;;3.10;2.00;;;10.00;91.90;;;;;;5053920;28;20257;-74
2021/04/25 08:41:35;;;;;;;1.87;1.77;;;10.10;91.70;;;;;;5056397;28;20238;-77
2021/04/25 08:44:03;;;;;;;2.90;1.67;;;10.20;91.80;;;;;;5048344;28;20662;-76
2021/04/25 08:46:31;;;;;;;2.10;1.90;;;10.20;91.70;;;;;;5048812;28;20282;-75
2021/04/25 08:48:57;;;;;;;1.60;1.50;;;10.30;91.70;;;;;;5067649;28;20218;-75
2021/04/25 08:51:23;;;;;;;4.33;1.53;;;10.30;91.80;;;;;;5068571;28;20203;-75
2021/04/25 08:53:51;;;;;;;1.50;1.40;;;10.30;92.00;;;;;;5068788;28;20238;-75
2021/04/25 08:56:18;;;;;;;1.80;1.70;;;10.30;91.90;;;;;;5061319;28;20204;-77
2021/04/25 08:58:44;;;;;;;2.87;1.73;;;10.30;91.90;;;;;;5057665;28;20216;-71
2021/04/25 09:01:11;;;;;;;2.27;1.70;;;10.20;92.00;;;;;;5056046;28;20256;-74
2021/04/25 09:03:38;;;;;;;2.30;2.00;;;10.30;92.30;;;;;;5052504;28;20203;-75
2021/04/25 09:06:06;;;;;;;2.13;1.93;;;10.30;92.70;;;;;;5068455;28;20238;-75
2021/04/25 09:08:42;;;;;;;3.83;1.97;;;10.40;93.20;;;;;;5058767;28;20579;-75
2021/04/25 09:11:23;;;;;;;2.10;1.47;;;10.40;93.80;;;;;;5060016;28;20269;-75
2021/04/25 09:14:07;;;;;;;2.13;1.40;;;10.50;93.70;;;;;;5057709;28;20204;-75
2021/04/25 09:16:36;;;;;;;2.10;1.50;;;10.60;93.80;;;;;;5047553;28;20285;-77
2021/04/25 09:19:03;;;;;;;3.07;1.70;;;10.70;93.80;;;;;;5048161;28;20200;-78
2021/04/25 09:21:30;;;;;;;2.03;1.83;;;10.70;93.80;;;;;;5047829;28;20208;-75
2021/04/25 09:23:56;;;;;;;3.93;1.80;;;10.70;93.40;;;;;;5048322;28;20228;-77
2021/04/25 09:26:22;;;;;;;1.80;1.50;;;10.70;93.50;;;;;;5048942;28;20196;-75
2021/04/25 09:28:59;;;;;;;2.10;1.27;;;10.60;93.60;;;;;;5053783;28;20250;-75
2021/04/25 09:31:25;;;;;;;2.00;1.80;;;10.50;94.00;;;;;;5049107;28;20231;-75
2021/04/25 09:33:53;;;;;;;3.83;1.70;;;10.50;94.20;;;;;;5063754;28;20234;-75
2021/04/25 09:36:22;;;;;;;1.80;1.50;;;10.50;94.50;;;;;;5053774;28;20203;-75
2021/04/25 09:38:49;;;;;;;2.03;1.70;;;10.50;94.90;;;;;;5061957;28;20211;-77
2021/04/25 09:41:24;;;;;;;3.47;1.77;;;10.50;95.00;;;;;;5063011;28;20202;-76
2021/04/25 09:43:50;;;;;;;3.57;1.90;;;10.50;94.90;;;;;;5054613;28;20199;-76
2021/04/25 09:46:16;;;;;;;3.50;1.70;;;10.30;93.60;;;;;;5054145;28;20258;-76
2021/04/25 09:48:42;;;;;;;2.40;1.70;;;10.20;94.10;;;;;;5049595;28;20200;-76
2021/04/25 09:51:14;;;;;;;2.83;1.60;;;10.10;94.60;;;;;;5045273;28;20724;-72
2021/04/25 09:53:42;;;;;;;2.20;1.67;;;10.20;94.80;;;;;;5045214;28;20319;-72
2021/04/25 09:56:10;;;;;;;2.07;1.87;;;10.20;94.50;;;;;;5050583;28;20556;-73
2021/04/25 09:58:59;;;;;;;3.70;1.90;;;10.30;94.80;;;;;;5060469;28;20207;-73
2021/04/25 10:01:26;;;;;;;2.10;1.90;;;10.40;95.00;;;;;;5067372;28;20200;-72
2021/04/25 10:03:52;;;;;;;2.63;1.70;;;10.50;94.40;;;;;;5068091;28;20211;-73
2021/04/25 10:06:20;;;;;;;3.27;1.47;;;10.50;94.20;;;;;;5074601;28;20198;-73
2021/04/25 10:08:49;;;;;;;1.70;1.50;;;10.60;93.90;;;;;;5081382;28;20282;-72
2021/04/25 10:11:17;;;;;;;2.20;1.47;;;10.70;92.70;;;;;;5086465;28;20598;-73
2021/04/25 10:13:45;;;;;;;1.60;1.50;;;10.70;92.20;;;;;;5086598;28;20207;-73
2021/04/25 10:16:11;;;;;;;1.50;1.40;;;10.70;92.20;;;;;;5086300;28;20774;-72
2021/04/25 10:18:38;;;;;;;3.90;1.87;;;10.80;92.80;;;;;;5086730;28;20215;-73
2021/04/25 10:21:04;;;;;;;1.70;1.60;;;11.10;92.70;;;;;;5086588;28;20264;-73
2021/04/25 10:23:31;;;;;;;1.80;1.43;;;11.20;92.10;;;;;;5087013;28;20199;-73
2021/04/25 10:25:58;;;;;;;2.27;1.47;;;11.40;91.90;;;;;;5087877;28;21041;-73
2021/04/25 10:28:29;;;;;;;10.30;2.53;;;11.70;92.30;;;;;;5087624;28;20242;-73
2021/04/25 10:31:01;;;;;;;2.50;1.40;;;11.90;90.90;;;;;;5087812;28;20219;-73
2021/04/25 10:33:51;;;;;;;5.37;1.50;;;12.00;89.60;;;;;;5087870;28;20195;-73
2021/04/25 10:36:18;;;;;;;1.37;1.27;;;12.20;86.80;;;;;;5087759;28;20202;-73
2021/04/25 10:38:44;;;;;;;3.00;1.30;;;12.10;83.10;;;;;;5088842;28;20210;-73
2021/04/25 10:41:22;;;;;;;5.57;1.30;;;12.10;83.90;;;;;;5091375;28;20207;-73
2021/04/25 10:43:59;;;;;;;1.03;1.00;;;12.10;83.40;;;;;;5090844;28;20661;-73
2021/04/25 10:46:25;;;;;;;1.87;1.17;;;12.20;83.90;;;;;;5091103;28;20232;-73
2021/04/25 10:49:28;;;;;;;1.20;1.10;;;12.30;84.50;;;;;;5091421;28;20572;-73
2021/04/25 10:51:54;;;;;;;1.20;1.20;;;12.40;83.50;;;;;;5091144;28;20292;-73
2021/04/25 10:54:21;;;;;;;1.23;0.77;;;12.50;83.50;;;;;;5090822;28;20198;-73
2021/04/25 10:57:07;;;;;;;6.57;1.70;;;12.50;82.80;;;;;;5090764;28;20705;-73
2021/04/25 10:59:33;;;;;;;3.90;1.17;;;12.70;83.10;;;;;;5090942;28;20195;-73
2021/04/25 11:02:01;;;;;;;1.67;0.90;;;12.60;80.00;;;;;;5090926;28;20273;-73
2021/04/25 11:05:06;;;;;;;0.87;0.83;;;12.50;80.20;;;;;;5090837;28;20575;-73
2021/04/25 11:07:43;;;;;;;3.87;0.90;;;12.60;80.90;;;;;;5090772;28;20309;-73
2021/04/25 11:10:10;;;;;;;1.00;1.00;;;12.50;79.70;;;;;;5090878;28;20198;-73
2021/04/25 11:12:46;;;;;;;1.10;1.00;;;12.20;78.50;;;;;;5090897;28;20679;-73
2021/04/25 11:15:49;;;;;;;0.63;0.63;;;12.10;79.30;;;;;;5090695;28;20615;-73
2021/04/25 11:18:41;;;;;;;6.63;1.50;;;12.20;79.10;;;;;;5090822;28;20289;-73
2021/04/25 11:21:49;;;;;;;2.30;1.00;;;12.20;79.50;;;;;;5090412;28;20211;-73
2021/04/25 11:24:42;;;;;;;1.30;0.97;;;12.10;80.00;;;;;;5090770;28;20199;-73
2021/04/25 11:27:28;;;;;;;3.40;1.10;;;12.10;79.60;;;;;;5090472;28;20637;-73
2021/04/25 11:30:00;;;;;;;6.83;1.17;;;11.80;78.40;;;;;;5090380;28;20190;-74
2021/04/25 11:32:31;;;;;;;1.40;1.30;;;11.70;79.80;;;;;;5090405;28;20199;-73
2021/04/25 11:34:59;;;;;;;2.43;1.10;;;11.90;80.80;;;;;;5090351;28;20199;-73
2021/04/25 11:37:26;;;;;;;1.40;1.10;;;11.80;80.10;;;;;;5089804;28;20748;-74
2021/04/25 11:39:54;;;;;;;2.60;1.10;;;11.90;81.10;;;;;;5090154;28;20199;-74
2021/04/25 11:42:29;;;;;;;0.70;0.70;;;12.20;82.80;;;;;;5089958;28;20271;-74
2021/04/25 11:44:58;;;;;;;1.00;0.90;;;12.60;84.90;;;;;;5089659;28;20657;-74
2021/04/25 11:47:26;;;;;;;1.80;1.20;;;12.90;81.10;;;;;;5089953;28;20296;-74
2021/04/25 11:49:53;;;;;;;1.60;0.73;;;13.10;80.60;;;;;;5089062;28;20585;-74
2021/04/25 11:52:21;;;;;;;2.97;1.20;;;13.50;80.00;;;;;;5089659;28;20223;-74
2021/04/25 11:54:50;;;;;;;1.00;0.90;;;13.70;78.10;;;;;;5089935;28;20215;-74
2021/04/25 11:57:19;;;;;;;2.00;0.87;;;13.70;77.10;;;;;;5070303;28;20215;-74
2021/04/25 11:59:52;;;;;;;4.40;0.80;;;13.50;75.70;;;;;;5049660;28;20292;-74
2021/04/25 12:02:20;;;;;;;11.77;1.67;;;13.20;72.50;;;;;;5049382;28;20573;-74
2021/04/25 12:04:48;;;;;;;4.13;1.20;;;13.00;72.70;;;;;;5049478;28;20247;-73
2021/04/25 12:07:30;;;;;;;0.60;0.60;;;12.80;72.30;;;;;;5049201;28;20694;-73
2021/04/25 12:09:56;;;;;;;1.13;0.70;;;12.50;71.70;;;;;;5049547;28;20253;-74
2021/04/25 12:12:22;;;;;;;1.50;0.70;;;12.30;72.00;;;;;;5049195;28;20250;-73
2021/04/25 12:14:59;;;;;;;1.83;0.63;;;12.20;70.70;;;;;;5049245;28;20208;-73
2021/04/25 12:17:26;;;;;;;10.20;1.10;;;12.00;70.50;;;;;;5048857;28;20737;-73
2021/04/25 12:19:52;;;;;;;8.27;1.90;;;11.90;70.40;;;;;;5049238;28;20208;-73
2021/04/25 12:22:18;;;;;;;1.40;0.83;;;11.90;70.50;;;;;;5049383;28;20204;-73
2021/04/25 12:24:44;;;;;;;1.03;0.60;;;11.80;69.10;;;;;;5049198;28;20674;-73
2021/04/25 12:27:11;;;;;;;2.13;0.60;;;11.90;68.50;;;;;;5049001;28;20658;-73
2021/04/25 12:29:38;;;;;;;0.50;0.50;;;11.90;69.50;;;;;;5048984;28;20214;-72
2021/04/25 12:32:05;;;;;;;0.77;0.50;;;12.00;69.20;;;;;;5049150;28;20212;-72
2021/04/25 12:34:32;;;;;;;1.17;0.60;;;11.90;68.50;;;;;;5049216;28;20211;-72
2021/04/25 12:37:01;;;;;;;1.67;0.77;;;11.90;69.60;;;;;;5048782;28;20564;-72
2021/04/25 12:39:40;;;;;;;2.20;0.50;;;11.80;68.00;;;;;;5048904;28;20240;-72
2021/04/25 12:42:07;;;;;;;2.50;0.60;;;11.90;69.40;;;;;;5049015;28;20204;-72
2021/04/25 12:44:38;;;;;;;2.63;0.73;;;11.90;68.20;;;;;;5048535;28;20890;-72
2021/04/25 12:47:05;;;;;;;0.90;0.57;;;12.00;67.90;;;;;;5048638;28;20263;-72
2021/04/25 12:49:36;;;;;;;0.63;0.60;;;12.10;68.60;;;;;;5048798;28;20208;-72
2021/04/25 12:52:07;;;;;;;1.27;0.97;;;12.20;68.00;;;;;;5048697;28;20224;-72
2021/04/25 12:54:39;;;;;;;1.20;1.10;;;12.30;68.30;;;;;;5048833;28;20204;-72
2021/04/25 12:57:05;;;;;;;0.63;0.60;;;12.30;67.90;;;;;;5048829;28;20228;-73